sensor_id;sensor_type;location;lat;lon;timestamp;temperature;humidity
45115;DHT22;30877;43.706;10.780;2022-07-10T00:00:03;25.70;96.70
45115;DHT22;30877;43.706;10.780;2022-07-10T00:02:40;25.70;96.70
45115;DHT22;30877;43.706;10.780;2022-07-10T00:05:10;25.70;96.70
45115;DHT22;30877;43.706;10.780;2022-07-10T00:07:46;25.60;96.70
45115;DHT22;30877;43.706;10.780;2022-07-10T00:10:14;25.60;96.70
45115;DHT22;30877;43.706;10.780;2022-07-10T00:12:43;25.60;96.70
45115;DHT22;30877;43.706;10.780;2022-07-10T00:15:11;25.60;96.70
45115;DHT22;30877;43.706;10.780;2022-07-10T00:17:41;25.60;96.70
45115;DHT22;30877;43.706;10.780;2022-07-10T00:20:11;25.50;96.70
45115;DHT22;30877;43.706;10.780;2022-07-10T00:22:39;25.30;96.70
45115;DHT22;30877;43.706;10.780;2022-07-10T00:25:09;25.40;96.70
45115;DHT22;30877;43.706;10.780;2022-07-10T00:27:38;25.40;96.70
45115;DHT22;30877;43.706;10.780;2022-07-10T00:30:07;25.40;96.70
45115;DHT22;30877;43.706;10.780;2022-07-10T00:32:35;25.30;96.70
45115;DHT22;30877;43.706;10.780;2022-07-10T00:35:05;25.30;96.70
45115;DHT22;30877;43.706;10.780;2022-07-10T00:37:33;25.30;96.70
45115;DHT22;30877;43.706;10.780;2022-07-10T00:40:02;25.30;96.70
45115;DHT22;30877;43.706;10.780;2022-07-10T00:42:32;25.20;96.70
45115;DHT22;30877;43.706;10.780;2022-07-10T00:45:00;25.20;96.70
45115;DHT22;30877;43.706;10.780;2022-07-10T00:47:28;25.30;96.70
45115;DHT22;30877;43.706;10.780;2022-07-10T00:49:56;25.00;96.70
45115;DHT22;30877;43.706;10.780;2022-07-10T00:52:26;24.90;96.70
45115;DHT22;30877;43.706;10.780;2022-07-10T00:54:55;24.90;96.70
45115;DHT22;30877;43.706;10.780;2022-07-10T00:57:24;24.80;96.70
45115;DHT22;30877;43.706;10.780;2022-07-10T00:59:52;25.00;96.70
45115;DHT22;30877;43.706;10.780;2022-07-10T01:02:21;24.60;96.70
45115;DHT22;30877;43.706;10.780;2022-07-10T01:04:49;24.30;96.70
45115;DHT22;30877;43.706;10.780;2022-07-10T01:07:17;24.20;96.70
45115;DHT22;30877;43.706;10.780;2022-07-10T01:09:47;24.20;96.70
45115;DHT22;30877;43.706;10.780;2022-07-10T01:12:16;24.30;96.70
45115;DHT22;30877;43.706;10.780;2022-07-10T01:14:45;24.30;96.70
45115;DHT22;30877;43.706;10.780;2022-07-10T01:17:14;24.50;96.70
45115;DHT22;30877;43.706;10.780;2022-07-10T01:19:43;24.60;96.70
45115;DHT22;30877;43.706;10.780;2022-07-10T01:22:13;24.60;96.70
45115;DHT22;30877;43.706;10.780;2022-07-10T01:24:41;24.50;96.70
45115;DHT22;30877;43.706;10.780;2022-07-10T01:27:12;24.40;96.70
45115;DHT22;30877;43.706;10.780;2022-07-10T01:29:40;24.20;96.70
45115;DHT22;30877;43.706;10.780;2022-07-10T01:32:09;24.20;96.70
45115;DHT22;30877;43.706;10.780;2022-07-10T01:34:37;24.30;96.70
45115;DHT22;30877;43.706;10.780;2022-07-10T01:37:05;24.30;96.70
45115;DHT22;30877;43.706;10.780;2022-07-10T01:39:35;24.30;96.70
45115;DHT22;30877;43.706;10.780;2022-07-10T01:42:04;24.10;96.70
45115;DHT22;30877;43.706;10.780;2022-07-10T01:44:32;24.10;96.70
45115;DHT22;30877;43.706;10.780;2022-07-10T01:47:00;24.00;96.70
45115;DHT22;30877;43.706;10.780;2022-07-10T01:49:28;23.90;96.70
45115;DHT22;30877;43.706;10.780;2022-07-10T01:51:56;24.00;96.70
45115;DHT22;30877;43.706;10.780;2022-07-10T01:54:24;24.20;96.70
45115;DHT22;30877;43.706;10.780;2022-07-10T01:56:54;24.00;96.70
45115;DHT22;30877;43.706;10.780;2022-07-10T01:59:22;23.90;96.70
45115;DHT22;30877;43.706;10.780;2022-07-10T02:01:50;24.00;96.70
45115;DHT22;30877;43.706;10.780;2022-07-10T02:04:18;23.90;96.70
45115;DHT22;30877;43.706;10.780;2022-07-10T02:07:05;23.70;96.70
45115;DHT22;30877;43.706;10.780;2022-07-10T02:09:33;23.60;96.70
45115;DHT22;30877;43.706;10.780;2022-07-10T02:12:03;23.70;96.70
45115;DHT22;30877;43.706;10.780;2022-07-10T02:14:32;23.60;96.70
45115;DHT22;30877;43.706;10.780;2022-07-10T02:17:00;23.70;96.70
45115;DHT22;30877;43.706;10.780;2022-07-10T02:19:28;23.60;96.70
45115;DHT22;30877;43.706;10.780;2022-07-10T02:21:57;23.70;96.70
45115;DHT22;30877;43.706;10.780;2022-07-10T02:24:25;23.80;96.70
45115;DHT22;30877;43.706;10.780;2022-07-10T02:26:53;23.90;96.70
45115;DHT22;30877;43.706;10.780;2022-07-10T02:29:24;23.70;96.70
45115;DHT22;30877;43.706;10.780;2022-07-10T02:31:52;23.60;96.70
45115;DHT22;30877;43.706;10.780;2022-07-10T02:34:21;23.40;96.70
45115;DHT22;30877;43.706;10.780;2022-07-10T02:36:49;23.30;96.70
45115;DHT22;30877;43.706;10.780;2022-07-10T02:39:18;23.20;96.70
45115;DHT22;30877;43.706;10.780;2022-07-10T02:41:46;23.20;96.70
45115;DHT22;30877;43.706;10.780;2022-07-10T02:44:14;23.40;96.70
45115;DHT22;30877;43.706;10.780;2022-07-10T02:46:44;23.50;96.70
45115;DHT22;30877;43.706;10.780;2022-07-10T02:49:12;23.30;96.70
45115;DHT22;30877;43.706;10.780;2022-07-10T02:51:39;23.30;96.70
45115;DHT22;30877;43.706;10.780;2022-07-10T02:54:08;23.20;96.70
45115;DHT22;30877;43.706;10.780;2022-07-10T02:56:36;23.30;96.70
45115;DHT22;30877;43.706;10.780;2022-07-10T02:59:04;23.30;96.70
45115;DHT22;30877;43.706;10.780;2022-07-10T03:01:34;23.20;96.70
45115;DHT22;30877;43.706;10.780;2022-07-10T03:04:03;23.20;96.70
45115;DHT22;30877;43.706;10.780;2022-07-10T03:06:31;23.30;96.70
45115;DHT22;30877;43.706;10.780;2022-07-10T03:09:00;23.20;96.70
45115;DHT22;30877;43.706;10.780;2022-07-10T03:11:28;23.10;96.70
45115;DHT22;30877;43.706;10.780;2022-07-10T03:13:56;22.80;96.70
45115;DHT22;30877;43.706;10.780;2022-07-10T03:16:24;22.90;96.70
45115;DHT22;30877;43.706;10.780;2022-07-10T03:18:52;22.80;96.70
45115;DHT22;30877;43.706;10.780;2022-07-10T03:21:21;23.00;96.70
45115;DHT22;30877;43.706;10.780;2022-07-10T03:23:50;23.20;96.70
45115;DHT22;30877;43.706;10.780;2022-07-10T03:26:18;23.20;96.70
45115;DHT22;30877;43.706;10.780;2022-07-10T03:28:46;23.10;96.70
45115;DHT22;30877;43.706;10.780;2022-07-10T03:31:14;23.00;96.70
45115;DHT22;30877;43.706;10.780;2022-07-10T03:33:42;22.70;96.70
45115;DHT22;30877;43.706;10.780;2022-07-10T03:36:10;22.90;96.70
45115;DHT22;30877;43.706;10.780;2022-07-10T03:38:39;22.70;96.70
45115;DHT22;30877;43.706;10.780;2022-07-10T03:41:08;22.70;96.70
45115;DHT22;30877;43.706;10.780;2022-07-10T03:43:36;22.70;96.70
45115;DHT22;30877;43.706;10.780;2022-07-10T03:46:05;22.80;96.70
45115;DHT22;30877;43.706;10.780;2022-07-10T03:48:33;22.70;96.70
45115;DHT22;30877;43.706;10.780;2022-07-10T03:51:01;22.60;96.70
45115;DHT22;30877;43.706;10.780;2022-07-10T03:53:29;22.50;96.70
45115;DHT22;30877;43.706;10.780;2022-07-10T03:55:59;22.40;96.70
45115;DHT22;30877;43.706;10.780;2022-07-10T03:58:28;22.50;96.70
45115;DHT22;30877;43.706;10.780;2022-07-10T04:00:56;22.70;96.70
45115;DHT22;30877;43.706;10.780;2022-07-10T04:03:24;22.80;96.70
45115;DHT22;30877;43.706;10.780;2022-07-10T04:05:52;22.80;96.70
45115;DHT22;30877;43.706;10.780;2022-07-10T04:08:20;22.80;96.70
45115;DHT22;30877;43.706;10.780;2022-07-10T04:10:48;22.90;96.70
45115;DHT22;30877;43.706;10.780;2022-07-10T04:13:18;22.90;96.70
45115;DHT22;30877;43.706;10.780;2022-07-10T04:15:46;22.60;96.70
45115;DHT22;30877;43.706;10.780;2022-07-10T04:18:14;22.80;96.70
45115;DHT22;30877;43.706;10.780;2022-07-10T04:20:42;23.00;96.70
45115;DHT22;30877;43.706;10.780;2022-07-10T04:23:10;22.90;96.70
45115;DHT22;30877;43.706;10.780;2022-07-10T04:25:38;22.90;96.70
45115;DHT22;30877;43.706;10.780;2022-07-10T04:28:06;23.00;96.70
45115;DHT22;30877;43.706;10.780;2022-07-10T04:30:36;23.00;96.70
45115;DHT22;30877;43.706;10.780;2022-07-10T04:33:04;22.90;96.70
45115;DHT22;30877;43.706;10.780;2022-07-10T04:35:32;22.80;96.70
45115;DHT22;30877;43.706;10.780;2022-07-10T04:38:00;22.80;96.70
45115;DHT22;30877;43.706;10.780;2022-07-10T04:40:28;22.70;96.70
45115;DHT22;30877;43.706;10.780;2022-07-10T04:42:56;22.80;96.70
45115;DHT22;30877;43.706;10.780;2022-07-10T04:45:24;22.80;96.70
45115;DHT22;30877;43.706;10.780;2022-07-10T04:47:53;22.70;96.70
45115;DHT22;30877;43.706;10.780;2022-07-10T04:50:21;22.90;96.70
45115;DHT22;30877;43.706;10.780;2022-07-10T04:52:49;22.90;96.70
45115;DHT22;30877;43.706;10.780;2022-07-10T04:55:18;22.50;96.70
45115;DHT22;30877;43.706;10.780;2022-07-10T04:57:45;22.60;96.70
45115;DHT22;30877;43.706;10.780;2022-07-10T05:00:14;22.70;96.70
45115;DHT22;30877;43.706;10.780;2022-07-10T05:02:42;22.60;96.70
45115;DHT22;30877;43.706;10.780;2022-07-10T05:05:12;22.70;96.70
45115;DHT22;30877;43.706;10.780;2022-07-10T05:07:39;22.80;96.70
45115;DHT22;30877;43.706;10.780;2022-07-10T05:10:08;22.60;96.70
45115;DHT22;30877;43.706;10.780;2022-07-10T05:12:36;22.60;96.70
45115;DHT22;30877;43.706;10.780;2022-07-10T05:15:05;22.70;96.70
45115;DHT22;30877;43.706;10.780;2022-07-10T05:17:33;22.70;96.70
45115;DHT22;30877;43.706;10.780;2022-07-10T05:20:01;22.70;96.70
45115;DHT22;30877;43.706;10.780;2022-07-10T05:22:30;22.70;96.70
45115;DHT22;30877;43.706;10.780;2022-07-10T05:24:59;22.80;96.70
45115;DHT22;30877;43.706;10.780;2022-07-10T05:27:27;22.90;96.70
45115;DHT22;30877;43.706;10.780;2022-07-10T05:29:55;22.90;96.70
45115;DHT22;30877;43.706;10.780;2022-07-10T05:32:23;22.80;96.70
45115;DHT22;30877;43.706;10.780;2022-07-10T05:34:52;22.90;96.70
45115;DHT22;30877;43.706;10.780;2022-07-10T05:37:20;23.10;96.70
45115;DHT22;30877;43.706;10.780;2022-07-10T05:39:49;23.00;96.70
45115;DHT22;30877;43.706;10.780;2022-07-10T05:42:17;23.10;96.70
45115;DHT22;30877;43.706;10.780;2022-07-10T05:44:45;23.10;96.70
45115;DHT22;30877;43.706;10.780;2022-07-10T05:47:13;23.00;96.70
45115;DHT22;30877;43.706;10.780;2022-07-10T05:49:41;23.00;96.70
45115;DHT22;30877;43.706;10.780;2022-07-10T05:52:09;23.10;96.70
45115;DHT22;30877;43.706;10.780;2022-07-10T05:54:36;23.20;96.70
45115;DHT22;30877;43.706;10.780;2022-07-10T05:57:06;23.40;96.70
45115;DHT22;30877;43.706;10.780;2022-07-10T05:59:34;23.40;96.70
45115;DHT22;30877;43.706;10.780;2022-07-10T06:02:03;23.40;96.70
45115;DHT22;30877;43.706;10.780;2022-07-10T06:04:31;23.40;96.70
45115;DHT22;30877;43.706;10.780;2022-07-10T06:06:59;23.50;96.70
45115;DHT22;30877;43.706;10.780;2022-07-10T06:09:27;23.60;96.70
45115;DHT22;30877;43.706;10.780;2022-07-10T06:11:54;23.60;96.70
45115;DHT22;30877;43.706;10.780;2022-07-10T06:14:24;23.70;96.70
45115;DHT22;30877;43.706;10.780;2022-07-10T06:16:52;23.70;96.70
45115;DHT22;30877;43.706;10.780;2022-07-10T06:19:23;23.70;96.70
45115;DHT22;30877;43.706;10.780;2022-07-10T06:21:51;23.70;96.70
45115;DHT22;30877;43.706;10.780;2022-07-10T06:24:39;23.80;96.70
45115;DHT22;30877;43.706;10.780;2022-07-10T06:27:07;23.80;96.70
45115;DHT22;30877;43.706;10.780;2022-07-10T06:29:36;23.80;96.70
45115;DHT22;30877;43.706;10.780;2022-07-10T06:32:05;23.90;96.70
45115;DHT22;30877;43.706;10.780;2022-07-10T06:34:33;23.90;96.70
45115;DHT22;30877;43.706;10.780;2022-07-10T06:37:01;23.80;96.70
45115;DHT22;30877;43.706;10.780;2022-07-10T06:39:33;23.90;96.70
45115;DHT22;30877;43.706;10.780;2022-07-10T06:42:05;24.00;96.70
45115;DHT22;30877;43.706;10.780;2022-07-10T06:44:41;24.00;96.70
45115;DHT22;30877;43.706;10.780;2022-07-10T06:47:10;24.00;96.70
45115;DHT22;30877;43.706;10.780;2022-07-10T06:49:58;24.10;96.70
45115;DHT22;30877;43.706;10.780;2022-07-10T06:52:26;24.30;96.70
45115;DHT22;30877;43.706;10.780;2022-07-10T06:54:54;24.40;96.70
45115;DHT22;30877;43.706;10.780;2022-07-10T06:57:22;24.50;96.70
45115;DHT22;30877;43.706;10.780;2022-07-10T06:59:52;24.50;96.70
45115;DHT22;30877;43.706;10.780;2022-07-10T07:02:20;24.50;96.70
45115;DHT22;30877;43.706;10.780;2022-07-10T07:04:48;24.60;96.70
45115;DHT22;30877;43.706;10.780;2022-07-10T07:07:15;24.60;96.70
45115;DHT22;30877;43.706;10.780;2022-07-10T07:09:51;24.70;96.70
45115;DHT22;30877;43.706;10.780;2022-07-10T07:12:19;24.70;96.70
45115;DHT22;30877;43.706;10.780;2022-07-10T07:14:48;24.80;96.70
45115;DHT22;30877;43.706;10.780;2022-07-10T07:17:17;24.90;96.70
45115;DHT22;30877;43.706;10.780;2022-07-10T07:20:02;24.90;96.70
45115;DHT22;30877;43.706;10.780;2022-07-10T07:22:48;24.90;96.70
45115;DHT22;30877;43.706;10.780;2022-07-10T07:25:35;24.90;96.70
45115;DHT22;30877;43.706;10.780;2022-07-10T07:28:03;25.00;96.70
45115;DHT22;30877;43.706;10.780;2022-07-10T07:30:31;25.00;96.70
45115;DHT22;30877;43.706;10.780;2022-07-10T07:33:00;25.10;96.70
45115;DHT22;30877;43.706;10.780;2022-07-10T07:35:28;25.10;96.70
45115;DHT22;30877;43.706;10.780;2022-07-10T07:37:56;25.20;96.70
45115;DHT22;30877;43.706;10.780;2022-07-10T07:40:24;25.30;96.70
45115;DHT22;30877;43.706;10.780;2022-07-10T07:42:53;25.40;96.70
45115;DHT22;30877;43.706;10.780;2022-07-10T07:45:21;25.50;96.70
45115;DHT22;30877;43.706;10.780;2022-07-10T07:47:51;25.50;96.70
45115;DHT22;30877;43.706;10.780;2022-07-10T07:50:21;25.60;96.70
45115;DHT22;30877;43.706;10.780;2022-07-10T07:52:50;25.70;96.70
45115;DHT22;30877;43.706;10.780;2022-07-10T07:55:19;25.70;96.60
45115;DHT22;30877;43.706;10.780;2022-07-10T07:57:52;25.80;96.60
45115;DHT22;30877;43.706;10.780;2022-07-10T08:00:22;25.90;96.10
45115;DHT22;30877;43.706;10.780;2022-07-10T08:02:51;26.00;96.00
45115;DHT22;30877;43.706;10.780;2022-07-10T08:05:21;26.00;95.90
45115;DHT22;30877;43.706;10.780;2022-07-10T08:07:51;26.00;95.10
45115;DHT22;30877;43.706;10.780;2022-07-10T08:10:21;26.10;94.70
45115;DHT22;30877;43.706;10.780;2022-07-10T08:12:50;26.10;94.80
45115;DHT22;30877;43.706;10.780;2022-07-10T08:15:19;26.10;94.40
45115;DHT22;30877;43.706;10.780;2022-07-10T08:17:51;26.20;94.50
45115;DHT22;30877;43.706;10.780;2022-07-10T08:20:21;26.30;93.60
45115;DHT22;30877;43.706;10.780;2022-07-10T08:22:50;26.30;93.50
45115;DHT22;30877;43.706;10.780;2022-07-10T08:25:27;26.30;92.30
45115;DHT22;30877;43.706;10.780;2022-07-10T08:28:00;26.40;92.30
45115;DHT22;30877;43.706;10.780;2022-07-10T08:30:28;26.60;92.50
45115;DHT22;30877;43.706;10.780;2022-07-10T08:32:56;26.60;91.20
45115;DHT22;30877;43.706;10.780;2022-07-10T08:35:26;26.50;91.60
45115;DHT22;30877;43.706;10.780;2022-07-10T08:37:54;26.60;91.00
45115;DHT22;30877;43.706;10.780;2022-07-10T08:40:22;26.80;90.40
45115;DHT22;30877;43.706;10.780;2022-07-10T08:42:51;26.90;89.30
45115;DHT22;30877;43.706;10.780;2022-07-10T08:45:19;27.00;87.40
45115;DHT22;30877;43.706;10.780;2022-07-10T08:47:48;27.00;87.20
45115;DHT22;30877;43.706;10.780;2022-07-10T08:50:21;27.00;87.00
45115;DHT22;30877;43.706;10.780;2022-07-10T08:52:58;27.10;86.30
45115;DHT22;30877;43.706;10.780;2022-07-10T08:55:27;27.20;85.70
45115;DHT22;30877;43.706;10.780;2022-07-10T08:57:55;27.30;85.50
45115;DHT22;30877;43.706;10.780;2022-07-10T09:00:24;27.40;85.50
45115;DHT22;30877;43.706;10.780;2022-07-10T09:02:54;27.50;85.40
45115;DHT22;30877;43.706;10.780;2022-07-10T09:05:23;27.70;85.80
45115;DHT22;30877;43.706;10.780;2022-07-10T09:07:53;27.60;84.50
45115;DHT22;30877;43.706;10.780;2022-07-10T09:10:24;27.70;84.40
45115;DHT22;30877;43.706;10.780;2022-07-10T09:12:54;27.60;84.90
45115;DHT22;30877;43.706;10.780;2022-07-10T09:15:24;27.50;84.30
45115;DHT22;30877;43.706;10.780;2022-07-10T09:17:56;27.50;83.10
45115;DHT22;30877;43.706;10.780;2022-07-10T09:20:27;27.50;83.70
45115;DHT22;30877;43.706;10.780;2022-07-10T09:22:58;27.60;82.80
45115;DHT22;30877;43.706;10.780;2022-07-10T09:25:31;27.70;82.20
45115;DHT22;30877;43.706;10.780;2022-07-10T09:28:00;27.90;81.30
45115;DHT22;30877;43.706;10.780;2022-07-10T09:30:34;27.90;80.90
45115;DHT22;30877;43.706;10.780;2022-07-10T09:33:17;28.00;81.30
45115;DHT22;30877;43.706;10.780;2022-07-10T09:36:04;28.20;80.70
45115;DHT22;30877;43.706;10.780;2022-07-10T09:38:52;28.10;81.10
45115;DHT22;30877;43.706;10.780;2022-07-10T09:41:24;28.00;81.00
45115;DHT22;30877;43.706;10.780;2022-07-10T09:43:54;28.00;80.60
45115;DHT22;30877;43.706;10.780;2022-07-10T09:46:25;28.10;80.90
45115;DHT22;30877;43.706;10.780;2022-07-10T09:49:12;28.20;80.60
45115;DHT22;30877;43.706;10.780;2022-07-10T09:51:41;28.30;81.00
45115;DHT22;30877;43.706;10.780;2022-07-10T09:54:17;28.30;79.70
45115;DHT22;30877;43.706;10.780;2022-07-10T09:56:47;28.40;80.50
45115;DHT22;30877;43.706;10.780;2022-07-10T09:59:16;28.70;79.60
45115;DHT22;30877;43.706;10.780;2022-07-10T10:01:46;28.80;78.40
45115;DHT22;30877;43.706;10.780;2022-07-10T10:04:16;28.90;78.40
45115;DHT22;30877;43.706;10.780;2022-07-10T10:06:47;29.10;77.30
45115;DHT22;30877;43.706;10.780;2022-07-10T10:09:23;29.10;77.70
45115;DHT22;30877;43.706;10.780;2022-07-10T10:11:56;29.20;77.60
45115;DHT22;30877;43.706;10.780;2022-07-10T10:14:26;29.30;77.10
45115;DHT22;30877;43.706;10.780;2022-07-10T10:16:56;29.20;77.40
45115;DHT22;30877;43.706;10.780;2022-07-10T10:19:24;29.20;78.30
45115;DHT22;30877;43.706;10.780;2022-07-10T10:22:12;29.30;77.50
45115;DHT22;30877;43.706;10.780;2022-07-10T10:24:44;29.50;77.50
45115;DHT22;30877;43.706;10.780;2022-07-10T10:27:14;29.60;76.90
45115;DHT22;30877;43.706;10.780;2022-07-10T10:29:43;29.70;77.20
45115;DHT22;30877;43.706;10.780;2022-07-10T10:32:13;29.80;76.20
45115;DHT22;30877;43.706;10.780;2022-07-10T10:34:42;29.80;76.30
45115;DHT22;30877;43.706;10.780;2022-07-10T10:37:32;29.90;76.70
45115;DHT22;30877;43.706;10.780;2022-07-10T10:40:04;30.10;76.20
45115;DHT22;30877;43.706;10.780;2022-07-10T10:42:37;30.20;75.70
45115;DHT22;30877;43.706;10.780;2022-07-10T10:45:23;30.30;75.40
45115;DHT22;30877;43.706;10.780;2022-07-10T10:48:01;30.40;75.80
45115;DHT22;30877;43.706;10.780;2022-07-10T10:50:51;30.50;75.50
45115;DHT22;30877;43.706;10.780;2022-07-10T10:53:21;30.60;73.90
45115;DHT22;30877;43.706;10.780;2022-07-10T10:56:23;30.60;74.20
45115;DHT22;30877;43.706;10.780;2022-07-10T10:58:52;30.60;74.60
45115;DHT22;30877;43.706;10.780;2022-07-10T11:01:26;30.60;74.60
45115;DHT22;30877;43.706;10.780;2022-07-10T11:04:16;30.90;75.10
45115;DHT22;30877;43.706;10.780;2022-07-10T11:06:48;30.80;73.30
45115;DHT22;30877;43.706;10.780;2022-07-10T11:09:28;30.80;73.50
45115;DHT22;30877;43.706;10.780;2022-07-10T11:12:05;30.90;73.50
45115;DHT22;30877;43.706;10.780;2022-07-10T11:14:34;31.10;74.10
45115;DHT22;30877;43.706;10.780;2022-07-10T11:17:04;31.40;72.60
45115;DHT22;30877;43.706;10.780;2022-07-10T11:19:34;31.50;72.10
45115;DHT22;30877;43.706;10.780;2022-07-10T11:25:06;31.50;72.60
45115;DHT22;30877;43.706;10.780;2022-07-10T11:28:05;31.50;72.20
45115;DHT22;30877;43.706;10.780;2022-07-10T11:30:47;31.60;73.00
45115;DHT22;30877;43.706;10.780;2022-07-10T11:33:18;31.70;72.40
45115;DHT22;30877;43.706;10.780;2022-07-10T11:35:49;31.80;73.10
45115;DHT22;30877;43.706;10.780;2022-07-10T11:38:21;31.80;73.40
45115;DHT22;30877;43.706;10.780;2022-07-10T11:40:50;31.90;73.30
45115;DHT22;30877;43.706;10.780;2022-07-10T11:43:26;32.00;73.70
45115;DHT22;30877;43.706;10.780;2022-07-10T11:45:58;32.10;73.60
45115;DHT22;30877;43.706;10.780;2022-07-10T11:48:29;32.00;73.40
45115;DHT22;30877;43.706;10.780;2022-07-10T11:50:57;32.10;73.70
45115;DHT22;30877;43.706;10.780;2022-07-10T11:53:28;32.20;73.40
45115;DHT22;30877;43.706;10.780;2022-07-10T11:55:59;32.30;72.50
45115;DHT22;30877;43.706;10.780;2022-07-10T11:58:29;32.20;73.40
45115;DHT22;30877;43.706;10.780;2022-07-10T12:00:58;32.20;73.30
45115;DHT22;30877;43.706;10.780;2022-07-10T12:03:27;32.50;74.00
45115;DHT22;30877;43.706;10.780;2022-07-10T12:06:02;32.50;73.30
45115;DHT22;30877;43.706;10.780;2022-07-10T12:08:42;32.60;73.00
45115;DHT22;30877;43.706;10.780;2022-07-10T12:11:12;32.70;73.20
45115;DHT22;30877;43.706;10.780;2022-07-10T12:13:42;32.70;73.90
45115;DHT22;30877;43.706;10.780;2022-07-10T12:16:11;32.80;73.80
45115;DHT22;30877;43.706;10.780;2022-07-10T12:18:39;32.80;73.80
45115;DHT22;30877;43.706;10.780;2022-07-10T12:21:12;32.70;73.60
45115;DHT22;30877;43.706;10.780;2022-07-10T12:23:42;32.80;74.70
45115;DHT22;30877;43.706;10.780;2022-07-10T12:26:12;33.00;74.90
45115;DHT22;30877;43.706;10.780;2022-07-10T12:28:53;32.80;74.00
45115;DHT22;30877;43.706;10.780;2022-07-10T12:31:23;33.00;75.30
45115;DHT22;30877;43.706;10.780;2022-07-10T12:33:54;33.20;74.40
45115;DHT22;30877;43.706;10.780;2022-07-10T12:36:26;33.20;74.50
45115;DHT22;30877;43.706;10.780;2022-07-10T12:39:08;33.20;74.60
45115;DHT22;30877;43.706;10.780;2022-07-10T12:41:53;33.10;74.40
45115;DHT22;30877;43.706;10.780;2022-07-10T12:44:39;33.10;74.40
45115;DHT22;30877;43.706;10.780;2022-07-10T12:47:08;33.30;75.20
45115;DHT22;30877;43.706;10.780;2022-07-10T12:49:50;33.20;74.50
45115;DHT22;30877;43.706;10.780;2022-07-10T12:52:26;33.20;75.30
45115;DHT22;30877;43.706;10.780;2022-07-10T12:55:12;33.20;74.80
45115;DHT22;30877;43.706;10.780;2022-07-10T12:57:50;33.40;76.00
45115;DHT22;30877;43.706;10.780;2022-07-10T13:00:21;33.40;75.80
45115;DHT22;30877;43.706;10.780;2022-07-10T13:02:57;33.50;76.80
45115;DHT22;30877;43.706;10.780;2022-07-10T13:05:27;33.70;76.20
45115;DHT22;30877;43.706;10.780;2022-07-10T13:08:07;33.50;76.00
45115;DHT22;30877;43.706;10.780;2022-07-10T13:10:38;33.50;76.00
45115;DHT22;30877;43.706;10.780;2022-07-10T13:13:07;33.40;75.90
45115;DHT22;30877;43.706;10.780;2022-07-10T13:15:37;33.70;76.00
45115;DHT22;30877;43.706;10.780;2022-07-10T13:18:13;33.80;75.80
45115;DHT22;30877;43.706;10.780;2022-07-10T13:20:43;33.90;75.00
45115;DHT22;30877;43.706;10.780;2022-07-10T13:23:11;33.90;74.50
45115;DHT22;30877;43.706;10.780;2022-07-10T13:25:40;33.90;74.70
45115;DHT22;30877;43.706;10.780;2022-07-10T13:28:10;34.10;74.60
45115;DHT22;30877;43.706;10.780;2022-07-10T13:30:40;34.10;73.90
45115;DHT22;30877;43.706;10.780;2022-07-10T13:33:09;34.50;74.60
45115;DHT22;30877;43.706;10.780;2022-07-10T13:35:37;34.40;72.40
45115;DHT22;30877;43.706;10.780;2022-07-10T13:38:06;34.30;73.10
45115;DHT22;30877;43.706;10.780;2022-07-10T13:40:41;34.60;73.90
45115;DHT22;30877;43.706;10.780;2022-07-10T13:46:34;34.70;72.70
45115;DHT22;30877;43.706;10.780;2022-07-10T13:49:06;34.60;71.00
45115;DHT22;30877;43.706;10.780;2022-07-10T13:51:35;34.40;70.50
45115;DHT22;30877;43.706;10.780;2022-07-10T13:54:04;34.70;71.20
45115;DHT22;30877;43.706;10.780;2022-07-10T13:56:32;34.70;70.90
45115;DHT22;30877;43.706;10.780;2022-07-10T13:59:01;34.90;70.70
45115;DHT22;30877;43.706;10.780;2022-07-10T14:01:31;34.80;70.60
45115;DHT22;30877;43.706;10.780;2022-07-10T14:04:01;34.80;69.90
45115;DHT22;30877;43.706;10.780;2022-07-10T14:06:30;34.90;70.20
45115;DHT22;30877;43.706;10.780;2022-07-10T14:08:58;35.20;69.70
45115;DHT22;30877;43.706;10.780;2022-07-10T14:11:26;35.00;69.80
45115;DHT22;30877;43.706;10.780;2022-07-10T14:13:55;35.30;69.70
45115;DHT22;30877;43.706;10.780;2022-07-10T14:16:23;35.30;69.10
45115;DHT22;30877;43.706;10.780;2022-07-10T14:18:55;35.40;68.40
45115;DHT22;30877;43.706;10.780;2022-07-10T14:21:25;35.40;68.60
45115;DHT22;30877;43.706;10.780;2022-07-10T14:23:55;35.40;68.70
45115;DHT22;30877;43.706;10.780;2022-07-10T14:26:27;35.70;68.70
45115;DHT22;30877;43.706;10.780;2022-07-10T14:28:55;35.60;68.60
45115;DHT22;30877;43.706;10.780;2022-07-10T14:31:24;35.70;68.50
45115;DHT22;30877;43.706;10.780;2022-07-10T14:33:52;35.80;67.80
45115;DHT22;30877;43.706;10.780;2022-07-10T14:36:21;35.50;68.20
45115;DHT22;30877;43.706;10.780;2022-07-10T14:38:56;35.50;68.10
45115;DHT22;30877;43.706;10.780;2022-07-10T14:41:27;35.60;68.50
45115;DHT22;30877;43.706;10.780;2022-07-10T14:43:55;35.90;67.50
45115;DHT22;30877;43.706;10.780;2022-07-10T14:46:24;36.10;67.30
45115;DHT22;30877;43.706;10.780;2022-07-10T14:48:54;36.20;68.30
45115;DHT22;30877;43.706;10.780;2022-07-10T14:51:22;36.30;67.40
45115;DHT22;30877;43.706;10.780;2022-07-10T14:53:55;36.50;67.40
45115;DHT22;30877;43.706;10.780;2022-07-10T14:56:24;36.60;67.30
45115;DHT22;30877;43.706;10.780;2022-07-10T14:58:53;36.50;67.10
45115;DHT22;30877;43.706;10.780;2022-07-10T15:01:41;36.50;67.20
45115;DHT22;30877;43.706;10.780;2022-07-10T15:04:10;36.40;66.90
45115;DHT22;30877;43.706;10.780;2022-07-10T15:06:38;36.40;67.00
45115;DHT22;30877;43.706;10.780;2022-07-10T15:09:08;36.60;66.80
45115;DHT22;30877;43.706;10.780;2022-07-10T15:11:37;36.30;66.70
45115;DHT22;30877;43.706;10.780;2022-07-10T15:14:05;36.40;66.90
45115;DHT22;30877;43.706;10.780;2022-07-10T15:16:37;36.60;67.20
45115;DHT22;30877;43.706;10.780;2022-07-10T15:19:07;36.90;67.00
45115;DHT22;30877;43.706;10.780;2022-07-10T15:21:38;36.80;66.50
45115;DHT22;30877;43.706;10.780;2022-07-10T15:24:08;37.00;66.50
45115;DHT22;30877;43.706;10.780;2022-07-10T15:26:37;37.00;65.90
45115;DHT22;30877;43.706;10.780;2022-07-10T15:29:05;36.90;66.00
45115;DHT22;30877;43.706;10.780;2022-07-10T15:31:34;37.00;66.10
45115;DHT22;30877;43.706;10.780;2022-07-10T15:34:07;37.20;66.30
45115;DHT22;30877;43.706;10.780;2022-07-10T15:36:36;36.90;65.40
45115;DHT22;30877;43.706;10.780;2022-07-10T15:39:04;37.00;65.80
45115;DHT22;30877;43.706;10.780;2022-07-10T15:41:34;36.90;65.90